Time;durP1;ratioP1;P1;durP2;ratioP2;P2;SDS_P1;SDS_P2;PMS_P1;PMS_P2;Temp;Humidity;BMP_temperature;BMP_pressure;BME280_temperature;BME280_humidity;BME280_pressure;Samples;Min_cycle;Max_cycle;Signal;HPM_P1;HPM_P2
2023/08/14 00:02:03;;;;;;;1335.07;578.00;;;14.40;99.90;;;;;;6164779;23;20071;-86
2023/08/14 00:04:28;;;;;;;1333.30;586.73;;;14.40;99.90;;;;;;6189554;23;20347;-87
2023/08/14 00:06:54;;;;;;;1323.00;576.87;;;14.40;99.90;;;;;;6165054;23;20096;-86
2023/08/14 00:09:20;;;;;;;1325.77;574.67;;;14.40;99.90;;;;;;6215900;23;20020;-86
2023/08/14 00:11:46;;;;;;;1260.80;578.20;;;14.40;99.90;;;;;;6189009;23;20024;-86
2023/08/14 00:14:12;;;;;;;1279.47;580.47;;;14.30;99.90;;;;;;6216136;23;20031;-85
2023/08/14 00:16:37;;;;;;;1306.97;567.30;;;14.30;99.90;;;;;;6189910;23;20077;-86
2023/08/14 00:19:03;;;;;;;1334.27;572.13;;;14.30;99.90;;;;;;6216115;23;20056;-85
2023/08/14 00:21:29;;;;;;;1274.73;576.07;;;14.30;99.90;;;;;;6215803;23;20013;-85
2023/08/14 00:23:55;;;;;;;1309.17;574.27;;;14.50;99.90;;;;;;6189396;23;20088;-85
2023/08/14 00:26:21;;;;;;;1308.40;572.67;;;14.20;99.90;;;;;;6216465;23;20028;-85
2023/08/14 00:28:46;;;;;;;1306.10;565.83;;;14.30;99.90;;;;;;6188332;23;20013;-86
2023/08/14 00:31:12;;;;;;;1262.93;574.33;;;14.30;99.90;;;;;;6214729;23;20020;-86
2023/08/14 00:33:38;;;;;;;1257.27;565.97;;;14.30;99.90;;;;;;6216230;23;20025;-85
2023/08/14 00:36:05;;;;;;;1256.93;570.27;;;14.20;99.90;;;;;;6189834;23;20514;-85
2023/08/14 00:38:31;;;;;;;1296.90;568.83;;;14.20;99.90;;;;;;6164466;23;20021;-84
2023/08/14 00:40:57;;;;;;;1293.87;570.60;;;14.30;99.90;;;;;;6189418;23;20059;-85
2023/08/14 00:43:23;;;;;;;1251.83;561.27;;;14.50;99.90;;;;;;6188659;23;20375;-85
2023/08/14 00:45:53;;;;;;;1286.10;572.33;;;14.20;99.90;;;;;;6188752;23;20099;-85
2023/08/14 00:48:19;;;;;;;1240.23;565.53;;;14.20;99.90;;;;;;6215129;23;20019;-85
2023/08/14 00:50:45;;;;;;;1292.40;575.60;;;14.20;99.90;;;;;;6215445;23;20028;-86
2023/08/14 00:53:14;;;;;;;1294.97;574.47;;;14.20;99.90;;;;;;6188740;23;20101;-86
2023/08/14 00:55:40;;;;;;;1287.00;567.43;;;14.20;99.90;;;;;;6188653;23;20324;-85
2023/08/14 00:58:06;;;;;;;1222.33;557.50;;;14.10;99.90;;;;;;6188971;23;20164;-85
2023/08/14 01:00:34;;;;;;;1248.73;570.27;;;14.20;99.90;;;;;;6215052;23;20009;-85
2023/08/14 01:03:01;;;;;;;1223.33;557.20;;;14.20;99.90;;;;;;6188445;23;20610;-86
2023/08/14 01:05:27;;;;;;;1220.50;555.00;;;14.10;99.90;;;;;;6215164;23;20466;-85
2023/08/14 01:07:52;;;;;;;1287.00;579.10;;;14.10;99.90;;;;;;6215708;23;20016;-87
2023/08/14 01:10:19;;;;;;;1235.53;570.77;;;14.10;99.90;;;;;;6163707;23;20031;-85
2023/08/14 01:13:06;;;;;;;1279.10;568.67;;;14.10;99.90;;;;;;6215376;23;20024;-86
2023/08/14 01:15:44;;;;;;;1293.50;576.40;;;14.10;99.90;;;;;;6188250;23;20048;-85
2023/08/14 01:18:17;;;;;;;1257.97;576.47;;;14.10;99.90;;;;;;6164133;23;20113;-85
2023/08/14 01:21:05;;;;;;;1254.27;572.57;;;14.10;99.90;;;;;;6215406;23;20013;-86
2023/08/14 01:23:50;;;;;;;1257.90;567.60;;;14.00;99.90;;;;;;6122934;23;20026;-85
2023/08/14 01:26:16;;;;;;;1289.90;572.67;;;14.00;99.90;;;;;;6098671;23;20069;-85
2023/08/14 01:28:42;;;;;;;1253.07;573.83;;;14.00;99.90;;;;;;6098432;23;20076;-85
2023/08/14 01:31:08;;;;;;;1294.70;574.63;;;14.10;99.90;;;;;;6098242;23;20026;-85
2023/08/14 01:33:33;;;;;;;1254.93;568.30;;;14.00;99.90;;;;;;6098865;23;20161;-85
2023/08/14 01:36:19;;;;;;;1254.10;565.37;;;14.00;99.90;;;;;;6122995;23;20014;-86
2023/08/14 01:38:56;;;;;;;1294.28;573.22;;;14.00;99.90;;;;;;6123171;23;20026;-86
2023/08/14 01:42:18;;;;;;;1257.03;580.50;;;13.90;99.90;;;;;;6123137;23;20010;-86
2023/08/14 01:44:47;;;;;;;1295.83;565.47;;;13.90;99.90;;;;;;6041020;23;20399;-86
2023/08/14 01:47:16;;;;;;;1254.77;572.67;;;13.90;99.90;;;;;;6041087;23;20029;-86
2023/08/14 01:49:44;;;;;;;1252.00;570.13;;;13.90;99.90;;;;;;6041230;23;20474;-86
2023/08/14 01:52:10;;;;;;;1295.27;568.10;;;13.90;99.90;;;;;;6065383;23;20082;-86
2023/08/14 01:54:35;;;;;;;1289.20;564.07;;;14.00;99.90;;;;;;6065071;23;20030;-87
2023/08/14 01:57:01;;;;;;;1247.87;566.47;;;14.10;99.90;;;;;;6065152;23;20093;-86
2023/08/14 01:59:42;;;;;;;1254.77;568.00;;;13.80;99.90;;;;;;6044137;23;20015;-86
2023/08/14 02:02:08;;;;;;;1296.30;567.13;;;13.80;99.90;;;;;;6130258;23;20021;-87
2023/08/14 02:04:33;;;;;;;1254.67;565.23;;;13.70;99.90;;;;;;6154723;23;20084;-86
2023/08/14 02:06:59;;;;;;;1256.00;570.27;;;13.70;99.90;;;;;;6154762;23;20013;-86
2023/08/14 02:09:25;;;;;;;1250.60;569.00;;;13.70;99.90;;;;;;6154640;23;20029;-86
2023/08/14 02:11:50;;;;;;;1255.27;567.60;;;13.70;99.90;;;;;;6154452;23;20494;-86
2023/08/14 02:14:16;;;;;;;1293.37;559.57;;;13.70;99.90;;;;;;6130273;23;20441;-88
2023/08/14 02:16:42;;;;;;;1291.17;572.17;;;13.70;99.90;;;;;;6185369;23;20073;-87
2023/08/14 02:19:07;;;;;;;1247.40;566.57;;;13.70;99.90;;;;;;6187848;23;20013;-86
2023/08/14 02:21:33;;;;;;;1246.93;565.70;;;13.60;99.90;;;;;;6185424;23;20459;-86
2023/08/14 02:23:59;;;;;;;1240.07;563.70;;;13.60;99.90;;;;;;6187292;23;20053;-85
2023/08/14 02:26:24;;;;;;;1271.77;556.70;;;13.70;99.90;;;;;;6187428;23;20028;-86
2023/08/14 02:28:52;;;;;;;1249.43;569.47;;;13.70;99.90;;;;;;6185403;23;20048;-88
2023/08/14 02:31:18;;;;;;;1241.83;558.77;;;13.60;99.90;;;;;;6185046;23;20017;-87
2023/08/14 02:33:43;;;;;;;1285.93;557.07;;;13.60;99.90;;;;;;6185403;23;20360;-87
2023/08/14 02:36:09;;;;;;;1281.30;558.63;;;13.60;99.90;;;;;;6187274;23;20024;-86
2023/08/14 02:38:35;;;;;;;1238.13;553.67;;;13.60;99.90;;;;;;6187380;23;20025;-86
2023/08/14 02:41:02;;;;;;;1269.60;558.83;;;13.60;99.90;;;;;;6185088;23;20313;-85
2023/08/14 02:43:28;;;;;;;1238.77;555.80;;;13.80;99.90;;;;;;6185244;23;20035;-86
2023/08/14 02:45:54;;;;;;;1265.27;555.67;;;13.50;99.90;;;;;;6187158;23;20064;-86
2023/08/14 02:48:22;;;;;;;1261.50;558.70;;;13.50;99.90;;;;;;6185081;23;20415;-87
2023/08/14 02:50:47;;;;;;;1260.20;562.23;;;13.50;99.90;;;;;;6186964;23;20404;-86
2023/08/14 02:53:13;;;;;;;1253.90;558.67;;;13.50;99.90;;;;;;6185471;23;20013;-85
2023/08/14 02:55:39;;;;;;;1221.80;545.63;;;13.40;99.90;;;;;;6185777;23;20013;-85
2023/08/14 02:58:04;;;;;;;1261.67;562.93;;;13.50;99.90;;;;;;6160757;23;20024;-86
2023/08/14 03:00:30;;;;;;;1220.13;550.63;;;13.60;99.90;;;;;;6186496;23;20487;-86
2023/08/14 03:02:57;;;;;;;1217.57;545.77;;;13.70;99.90;;;;;;6186937;23;20056;-87
2023/08/14 03:05:22;;;;;;;1239.33;557.27;;;13.40;99.90;;;;;;6185235;23;20013;-85
2023/08/14 03:07:48;;;;;;;1209.00;537.27;;;13.40;99.90;;;;;;6185598;23;20063;-85
2023/08/14 03:10:14;;;;;;;1212.17;540.67;;;13.50;99.90;;;;;;6184928;23;20013;-86
2023/08/14 03:12:40;;;;;;;1218.33;537.43;;;13.70;99.90;;;;;;6160265;23;20450;-86
2023/08/14 03:15:06;;;;;;;1235.33;547.27;;;13.40;99.90;;;;;;6185444;23;20023;-86
2023/08/14 03:17:32;;;;;;;1211.37;546.40;;;13.40;99.90;;;;;;6186879;23;20013;-87
2023/08/14 03:19:57;;;;;;;1243.53;554.53;;;13.40;99.90;;;;;;6184913;23;20071;-84
2023/08/14 03:22:23;;;;;;;1210.13;543.73;;;13.40;99.90;;;;;;6186672;23;20052;-86
2023/08/14 03:24:49;;;;;;;1196.47;531.77;;;13.40;99.90;;;;;;6184758;23;20398;-86
2023/08/14 03:27:14;;;;;;;1228.73;558.00;;;13.30;99.90;;;;;;6160336;23;20408;-85
2023/08/14 03:29:40;;;;;;;1228.63;552.20;;;13.40;99.90;;;;;;6184940;23;20024;-86
2023/08/14 03:32:06;;;;;;;1224.20;552.03;;;13.40;99.90;;;;;;6184948;23;20071;-87
2023/08/14 03:34:31;;;;;;;1219.37;552.67;;;13.40;99.90;;;;;;6186628;23;20475;-86
2023/08/14 03:36:57;;;;;;;1211.63;546.00;;;13.40;99.90;;;;;;6184877;23;20075;-85
2023/08/14 03:39:23;;;;;;;1172.93;525.30;;;13.40;99.90;;;;;;6185092;23;20072;-86
2023/08/14 03:41:49;;;;;;;1205.13;549.67;;;13.30;99.90;;;;;;6186866;23;20013;-86
2023/08/14 03:44:14;;;;;;;1211.90;554.90;;;13.30;99.90;;;;;;6186452;23;20083;-85
2023/08/14 03:46:40;;;;;;;1214.40;548.67;;;13.30;99.90;;;;;;6184993;23;20017;-86
2023/08/14 03:49:05;;;;;;;1173.33;512.00;;;13.30;99.90;;;;;;6185165;23;20514;-86
2023/08/14 03:51:31;;;;;;;1172.53;516.67;;;13.20;99.90;;;;;;6185124;23;20013;-85
2023/08/14 03:53:57;;;;;;;1204.20;549.80;;;13.20;99.90;;;;;;6185725;23;20017;-86
2023/08/14 03:56:23;;;;;;;1184.40;537.87;;;13.40;99.90;;;;;;6185908;23;20017;-85
2023/08/14 03:58:48;;;;;;;1197.47;539.90;;;13.20;99.90;;;;;;6184377;23;20056;-85
2023/08/14 04:01:14;;;;;;;1194.03;535.63;;;13.20;99.90;;;;;;6186647;23;20432;-85
2023/08/14 04:03:40;;;;;;;1090.73;538.23;;;13.50;99.90;;;;;;6186262;23;20042;-85
2023/08/14 04:06:06;;;;;;;1.52;0.80;;;13.30;99.90;;;;;;6184331;23;20016;-84
2023/08/14 04:08:31;;;;;;;2.58;0.90;;;13.30;99.90;;;;;;6186442;23;20024;-84
2023/08/14 04:10:57;;;;;;;1.38;0.82;;;13.20;99.90;;;;;;6186366;23;20305;-86
2023/08/14 04:13:24;;;;;;;218.15;151.32;;;13.30;99.90;;;;;;6184520;23;20028;-85
2023/08/14 04:15:51;;;;;;;1.48;0.75;;;13.30;99.90;;;;;;6185882;23;20057;-85
2023/08/14 04:18:17;;;;;;;131.25;99.68;;;13.30;99.90;;;;;;6186467;23;20020;-86
2023/08/14 04:20:43;;;;;;;101.88;92.13;;;13.30;99.90;;;;;;6184822;23;20009;-86
2023/08/14 04:23:08;;;;;;;7.25;6.50;;;13.30;99.90;;;;;;6159088;23;20024;-85
2023/08/14 04:25:34;;;;;;;847.08;502.33;;;13.30;99.90;;;;;;6184779;23;20021;-85
2023/08/14 04:28:00;;;;;;;943.53;542.50;;;13.30;99.90;;;;;;6159659;23;20035;-85
2023/08/14 04:30:26;;;;;;;107.25;100.88;;;13.30;99.90;;;;;;6184235;23;20058;-86
2023/08/14 04:32:51;;;;;;;88.47;81.68;;;13.30;99.90;;;;;;6207242;23;20023;-86
2023/08/14 04:35:17;;;;;;;76.60;70.90;;;13.40;99.90;;;;;;6188623;23;20013;-85
2023/08/14 04:37:43;;;;;;;82.57;75.90;;;13.40;99.90;;;;;;6189639;23;20016;-86
2023/08/14 04:40:09;;;;;;;427.45;390.92;;;13.60;99.90;;;;;;6189130;23;20404;-86
2023/08/14 04:42:35;;;;;;;256.10;229.48;;;13.50;99.90;;;;;;6190228;23;20031;-86
2023/08/14 04:45:02;;;;;;;322.20;222.68;;;13.70;99.90;;;;;;6217217;23;20052;-86
2023/08/14 04:47:27;;;;;;;190.40;164.35;;;13.60;99.90;;;;;;6190046;23;20075;-86
2023/08/14 04:49:53;;;;;;;439.25;307.50;;;13.90;99.90;;;;;;6190025;23;20334;-86
2023/08/14 04:52:20;;;;;;;64.68;57.55;;;13.70;99.90;;;;;;6163560;23;20052;-86
2023/08/14 04:54:46;;;;;;;274.42;255.63;;;13.70;99.90;;;;;;6188413;23;20083;-86
2023/08/14 04:57:11;;;;;;;217.02;175.07;;;13.80;99.90;;;;;;6188841;23;20017;-86
2023/08/14 04:59:37;;;;;;;712.15;605.03;;;13.80;99.90;;;;;;6188993;23;20386;-86
2023/08/14 05:02:03;;;;;;;181.10;168.23;;;13.90;99.90;;;;;;6188821;23;20023;-86
2023/08/14 05:04:29;;;;;;;292.88;272.35;;;13.90;99.90;;;;;;6215669;23;20021;-86
2023/08/14 05:06:55;;;;;;;481.50;401.25;;;14.00;99.90;;;;;;6188402;23;20016;-86
2023/08/14 05:09:21;;;;;;;366.58;338.83;;;14.10;99.90;;;;;;6215426;23;20384;-86
2023/08/14 05:11:46;;;;;;;342.35;315.92;;;14.20;99.90;;;;;;6189054;23;20020;-86
2023/08/14 05:14:12;;;;;;;657.72;608.03;;;14.20;99.90;;;;;;6189554;23;20088;-86
2023/08/14 05:16:38;;;;;;;317.65;294.63;;;14.30;99.90;;;;;;6218359;23;20017;-85
2023/08/14 05:19:04;;;;;;;412.73;371.38;;;14.30;99.90;;;;;;6215795;23;20016;-86
2023/08/14 05:21:29;;;;;;;685.13;627.55;;;14.40;99.90;;;;;;6189175;23;20166;-86
2023/08/14 05:23:58;;;;;;;436.63;389.73;;;14.40;99.90;;;;;;6189379;23;20017;-84
2023/08/14 05:26:24;;;;;;;455.98;397.70;;;14.70;99.90;;;;;;6189393;23;20187;-85
2023/08/14 05:28:49;;;;;;;700.83;636.97;;;14.60;99.90;;;;;;6189650;23;20015;-84
2023/08/14 05:31:15;;;;;;;447.15;397.17;;;14.60;99.90;;;;;;6191453;23;20063;-85
2023/08/14 05:33:41;;;;;;;711.88;647.97;;;14.70;99.90;;;;;;6190800;23;20075;-85
2023/08/14 05:36:06;;;;;;;706.17;644.72;;;14.70;99.90;;;;;;6217382;23;20020;-86
2023/08/14 05:38:32;;;;;;;701.22;638.05;;;14.80;99.90;;;;;;6216556;23;20056;-86
2023/08/14 05:40:58;;;;;;;723.60;659.17;;;14.90;99.90;;;;;;6191725;23;20023;-86
2023/08/14 05:43:26;;;;;;;714.13;650.40;;;15.00;99.90;;;;;;6217975;23;20451;-86
2023/08/14 05:45:52;;;;;;;418.23;381.27;;;15.10;99.90;;;;;;6191103;23;20016;-86
2023/08/14 05:48:17;;;;;;;715.65;656.17;;;15.10;99.90;;;;;;6190671;23;20016;-86
2023/08/14 05:50:43;;;;;;;710.00;649.13;;;15.20;99.90;;;;;;6190599;23;20044;-85
2023/08/14 05:53:09;;;;;;;721.10;651.17;;;15.20;99.90;;;;;;6216713;23;20320;-86
2023/08/14 05:55:37;;;;;;;733.17;658.85;;;15.40;99.90;;;;;;6190681;23;20027;-85
2023/08/14 05:58:04;;;;;;;587.30;446.15;;;15.40;99.90;;;;;;6189502;23;20021;-87
2023/08/14 06:00:30;;;;;;;601.60;444.95;;;15.60;99.90;;;;;;6191251;23;20075;-84
2023/08/14 06:02:56;;;;;;;578.55;443.48;;;15.60;99.90;;;;;;6219297;23;20021;-83
2023/08/14 06:05:22;;;;;;;729.10;654.83;;;15.70;99.90;;;;;;6191162;23;20069;-85
2023/08/14 06:07:49;;;;;;;454.48;405.33;;;15.80;99.90;;;;;;6217221;23;20016;-84
2023/08/14 06:10:16;;;;;;;751.58;675.03;;;15.90;99.90;;;;;;6190892;23;20038;-84
2023/08/14 06:12:42;;;;;;;647.70;455.45;;;16.00;99.90;;;;;;6217139;23;20008;-84
2023/08/14 06:15:08;;;;;;;1005.60;677.50;;;16.00;99.90;;;;;;6216941;23;20320;-84
2023/08/14 06:17:34;;;;;;;943.63;523.55;;;16.10;99.90;;;;;;6216567;23;20070;-85
2023/08/14 06:20:00;;;;;;;945.13;522.35;;;16.20;99.90;;;;;;6216674;23;20138;-84
2023/08/14 06:22:26;;;;;;;867.88;501.23;;;16.20;99.90;;;;;;6193921;23;20013;-84
2023/08/14 06:24:52;;;;;;;985.97;529.22;;;16.30;99.90;;;;;;6223456;23;20062;-85
2023/08/14 06:27:18;;;;;;;892.40;508.45;;;16.40;99.90;;;;;;6222427;23;20024;-85
2023/08/14 06:29:44;;;;;;;885.13;509.13;;;16.50;99.90;;;;;;6194413;23;20443;-86
2023/08/14 06:32:10;;;;;;;884.05;515.10;;;16.60;99.90;;;;;;6191347;23;20448;-88
2023/08/14 06:34:46;;;;;;;824.65;498.38;;;16.70;99.90;;;;;;6160929;23;20017;-88
2023/08/14 06:37:12;;;;;;;1015.08;671.40;;;16.70;99.90;;;;;;6181488;23;20017;-85
2023/08/14 06:39:38;;;;;;;982.63;691.22;;;16.80;99.90;;;;;;6209110;23;20395;-84
2023/08/14 06:42:04;;;;;;;814.38;501.77;;;16.90;99.90;;;;;;6183680;23;20089;-83
2023/08/14 06:44:30;;;;;;;783.05;493.80;;;17.00;99.90;;;;;;6185074;23;20013;-84
2023/08/14 06:46:55;;;;;;;940.35;672.13;;;17.10;99.90;;;;;;6186636;23;20013;-83
2023/08/14 06:49:21;;;;;;;1084.28;701.53;;;17.10;99.90;;;;;;6187395;23;20020;-84
2023/08/14 06:51:47;;;;;;;840.83;504.65;;;17.20;99.90;;;;;;6187758;23;20383;-87
2023/08/14 06:54:12;;;;;;;1033.40;668.10;;;17.20;99.90;;;;;;6185057;23;20021;-85
2023/08/14 06:56:38;;;;;;;844.47;503.25;;;17.30;99.90;;;;;;6187123;23;20024;-86
2023/08/14 06:59:04;;;;;;;908.33;652.03;;;17.40;99.90;;;;;;6184991;23;20020;-86
2023/08/14 07:01:30;;;;;;;2.25;0.75;;;17.40;99.90;;;;;;6185024;23;20351;-85
2023/08/14 07:03:55;;;;;;;2.60;0.77;;;17.50;99.90;;;;;;6160205;23;20048;-86
2023/08/14 07:06:21;;;;;;;0.80;0.55;;;17.50;99.90;;;;;;6186034;23;20031;-85
2023/08/14 07:08:47;;;;;;;2.45;0.82;;;17.60;99.90;;;;;;6186643;23;20022;-85
2023/08/14 07:11:12;;;;;;;2.33;0.65;;;17.70;99.90;;;;;;6184726;23;20013;-86
2023/08/14 07:13:38;;;;;;;1.35;0.90;;;17.70;99.90;;;;;;6184994;23;20024;-86
2023/08/14 07:16:04;;;;;;;1.17;0.88;;;17.80;99.90;;;;;;6186746;23;20017;-86
2023/08/14 07:18:29;;;;;;;209.52;172.70;;;17.90;99.90;;;;;;6184892;23;20080;-84
2023/08/14 07:20:57;;;;;;;596.90;543.25;;;18.00;99.90;;;;;;6185183;23;20013;-84
2023/08/14 07:23:23;;;;;;;0.98;0.60;;;18.10;99.90;;;;;;6159874;23;20021;-84
2023/08/14 07:25:49;;;;;;;7.25;1.30;;;18.20;99.90;;;;;;6184872;23;20017;-86
2023/08/14 07:28:15;;;;;;;132.35;124.07;;;18.40;99.90;;;;;;6185067;23;20463;-84
2023/08/14 07:30:41;;;;;;;109.90;101.47;;;18.50;99.90;;;;;;6184773;23;20021;-84
2023/08/14 07:33:07;;;;;;;331.83;305.13;;;18.70;99.90;;;;;;6185200;23;20070;-85
2023/08/14 07:35:34;;;;;;;222.60;202.73;;;18.90;99.90;;;;;;6216446;23;20024;-85
2023/08/14 07:37:59;;;;;;;165.25;153.73;;;19.10;99.90;;;;;;6217469;23;20023;-85
2023/08/14 07:40:25;;;;;;;377.23;338.85;;;19.20;99.90;;;;;;6216373;23;20091;-85
2023/08/14 07:42:51;;;;;;;200.52;183.80;;;19.40;99.90;;;;;;6190537;23;20048;-85
2023/08/14 07:45:17;;;;;;;569.03;470.17;;;19.60;99.90;;;;;;6190592;23;20016;-85
2023/08/14 07:47:43;;;;;;;734.42;655.85;;;19.80;99.90;;;;;;6216702;23;20020;-85
2023/08/14 07:50:09;;;;;;;676.60;483.73;;;19.80;99.90;;;;;;6190565;23;20017;-85
2023/08/14 07:52:35;;;;;;;509.67;455.60;;;20.00;99.90;;;;;;6190413;23;20019;-85
2023/08/14 07:55:02;;;;;;;637.50;505.90;;;20.10;99.90;;;;;;6216849;23;20347;-85
2023/08/14 07:57:27;;;;;;;988.80;750.30;;;20.20;99.90;;;;;;6189655;23;20058;-84
2023/08/14 07:59:54;;;;;;;698.22;625.38;;;20.30;99.90;;;;;;6216669;23;20092;-85
2023/08/14 08:02:20;;;;;;;819.72;722.47;;;20.40;99.90;;;;;;6189904;23;20012;-85
2023/08/14 08:04:46;;;;;;;765.55;660.70;;;20.40;99.90;;;;;;6216400;23;20024;-85
2023/08/14 08:07:12;;;;;;;887.67;571.50;;;20.50;99.90;;;;;;6216755;23;20013;-85
2023/08/14 08:09:37;;;;;;;973.05;591.25;;;20.50;99.90;;;;;;6189350;23;20022;-85
2023/08/14 08:12:03;;;;;;;1025.40;618.60;;;20.60;99.90;;;;;;6190032;23;20017;-85
2023/08/14 08:14:29;;;;;;;1159.93;803.08;;;20.70;99.90;;;;;;6216042;23;20012;-85
2023/08/14 08:16:55;;;;;;;1125.55;790.38;;;20.70;99.90;;;;;;6215946;23;20339;-84
2023/08/14 08:19:21;;;;;;;837.00;561.58;;;20.70;99.90;;;;;;6189309;23;20106;-85
2023/08/14 08:21:47;;;;;;;812.13;733.30;;;20.70;99.90;;;;;;6189256;23;20016;-85
2023/08/14 08:24:13;;;;;;;927.83;575.92;;;20.70;99.90;;;;;;6215960;23;20399;-85
2023/08/14 08:26:39;;;;;;;643.38;504.00;;;20.80;99.90;;;;;;6189257;23;20100;-85
2023/08/14 08:29:07;;;;;;;375.10;349.13;;;20.80;99.90;;;;;;6189072;23;20032;-85
2023/08/14 08:31:33;;;;;;;724.22;557.65;;;20.80;99.90;;;;;;6189615;23;20013;-85
2023/08/14 08:33:59;;;;;;;670.58;522.28;;;20.90;99.90;;;;;;6215635;23;20458;-85
2023/08/14 08:36:24;;;;;;;885.10;775.55;;;20.90;99.90;;;;;;6215518;23;20028;-84
2023/08/14 08:38:50;;;;;;;1007.95;601.60;;;21.00;99.90;;;;;;6189057;23;20008;-85
2023/08/14 08:41:25;;;;;;;921.22;582.72;;;21.10;99.90;;;;;;6188676;23;20023;-85
2023/08/14 08:44:18;;;;;;;1333.45;805.67;;;21.10;99.90;;;;;;6215659;23;20016;-85
2023/08/14 08:46:58;;;;;;;1263.78;807.75;;;21.30;99.90;;;;;;6099358;23;20022;-85
2023/08/14 08:49:24;;;;;;;1321.20;809.55;;;21.40;99.90;;;;;;6123568;23;20342;-85
2023/08/14 08:51:51;;;;;;;1082.30;783.92;;;21.60;99.90;;;;;;6123983;23;20406;-86
2023/08/14 08:54:18;;;;;;;1315.82;818.38;;;21.60;99.90;;;;;;6098753;23;20141;-86
2023/08/14 08:56:44;;;;;;;848.22;584.17;;;21.70;99.90;;;;;;6099178;23;20053;-86
2023/08/14 08:59:11;;;;;;;856.42;588.35;;;21.80;99.90;;;;;;6099448;23;20093;-86
2023/08/14 09:01:38;;;;;;;919.03;600.85;;;21.90;99.90;;;;;;6124139;23;20014;-85
2023/08/14 09:04:04;;;;;;;1074.50;805.85;;;22.00;99.90;;;;;;6099565;23;20018;-85
2023/08/14 09:06:33;;;;;;;1112.55;817.60;;;22.10;99.90;;;;;;6076198;23;20017;-85
2023/08/14 09:08:59;;;;;;;1066.13;824.33;;;22.10;99.90;;;;;;6098513;23;20073;-85
2023/08/14 09:11:25;;;;;;;858.58;592.53;;;22.40;99.90;;;;;;6098680;23;20100;-85
2023/08/14 09:13:51;;;;;;;903.90;604.20;;;22.50;99.90;;;;;;6099001;23;20022;-85
2023/08/14 09:16:17;;;;;;;1082.22;831.22;;;22.60;99.90;;;;;;6098756;23;20438;-85
2023/08/14 09:18:43;;;;;;;841.17;599.00;;;22.60;99.90;;;;;;6099021;23;20049;-85
2023/08/14 09:21:09;;;;;;;916.40;615.25;;;22.70;99.90;;;;;;6123515;23;20021;-86
2023/08/14 09:23:37;;;;;;;943.40;805.15;;;22.80;99.90;;;;;;6164624;23;20316;-85
2023/08/14 09:26:04;;;;;;;833.75;599.45;;;22.70;99.90;;;;;;6163884;23;20024;-85
2023/08/14 09:28:31;;;;;;;876.67;609.13;;;22.70;99.90;;;;;;6215416;23;20024;-86
2023/08/14 09:31:09;;;;;;;693.17;570.28;;;22.70;99.90;;;;;;6188798;23;20013;-85
2023/08/14 09:33:43;;;;;;;1.55;0.57;;;22.60;99.90;;;;;;6188532;23;20466;-85
2023/08/14 09:36:11;;;;;;;3.70;0.95;;;22.80;99.90;;;;;;6215469;23;20021;-86
2023/08/14 09:38:37;;;;;;;879.60;792.20;;;23.00;99.90;;;;;;6215491;23;20012;-85
2023/08/14 09:41:03;;;;;;;647.45;576.17;;;23.20;99.90;;;;;;6188007;23;20391;-85
2023/08/14 09:43:31;;;;;;;741.35;602.38;;;23.40;99.90;;;;;;6187671;23;20025;-85
2023/08/14 09:45:58;;;;;;;722.42;584.15;;;23.60;99.90;;;;;;6188301;23;20016;-86
2023/08/14 09:48:40;;;;;;;820.78;618.42;;;23.60;99.90;;;;;;6188593;23;20427;-86
2023/08/14 09:51:13;;;;;;;1010.65;814.03;;;23.70;99.90;;;;;;6188703;23;20368;-86
2023/08/14 09:53:57;;;;;;;1024.65;822.47;;;23.90;99.90;;;;;;6188240;23;20048;-86
2023/08/14 09:56:24;;;;;;;888.97;627.70;;;23.90;99.90;;;;;;6188212;23;20110;-86
2023/08/14 09:58:50;;;;;;;847.92;618.78;;;23.90;99.90;;;;;;6188262;23;20021;-86
2023/08/14 10:01:19;;;;;;;1046.10;809.92;;;24.00;99.90;;;;;;6188277;23;20091;-86
2023/08/14 10:03:49;;;;;;;1043.78;829.78;;;24.10;99.90;;;;;;6214655;23;20016;-84
2023/08/14 10:06:16;;;;;;;974.60;662.50;;;24.20;99.90;;;;;;6215129;23;20013;-85
2023/08/14 10:08:44;;;;;;;814.38;630.70;;;24.40;99.90;;;;;;6214688;23;20020;-82
2023/08/14 10:11:28;;;;;;;;;;;;;;;;;;;;;
2023/08/14 10:44:58;;;;;;;0.98;0.30;;;26.50;99.90;;;;;;6233882;22;20099;-91
2023/08/14 10:47:49;;;;;;;2.80;0.32;;;26.80;99.90;;;;;;6253542;23;20016;-90
2023/08/14 10:50:54;;;;;;;0.85;0.20;;;27.10;99.90;;;;;;6147242;23;20027;-91
2023/08/14 11:04:04;;;;;;;2.60;0.35;;;27.90;99.60;;;;;;6238320;22;20020;-92
2023/08/14 11:07:00;;;;;;;3.35;0.20;;;28.00;99.90;;;;;;6221192;23;20027;-90
2023/08/14 11:13:38;;;;;;;1001.88;892.25;;;27.70;99.10;;;;;;6247286;23;20054;-91
2023/08/14 11:16:04;;;;;;;1200.78;944.42;;;27.70;99.90;;;;;;6220698;23;20020;-88
2023/08/14 11:18:34;;;;;;;814.55;708.05;;;27.70;99.90;;;;;;6220223;23;20012;-91
2023/08/14 11:24:10;;;;;;;934.33;840.38;;;27.60;99.30;;;;;;6124838;23;20025;-90
2023/08/14 11:26:48;;;;;;;1215.10;753.17;;;27.40;98.20;;;;;;6125643;23;20484;-90
2023/08/14 11:29:29;;;;;;;;;;;;;;;;;;;;;
2023/08/14 11:32:22;;;;;;;1256.63;890.30;;;27.30;98.40;;;;;;6116171;22;20039;-92
2023/08/14 11:34:51;;;;;;;1253.05;901.42;;;27.40;98.40;;;;;;6247667;23;20506;-91
2023/08/14 11:37:50;;;;;;;;;;;;;;;;;;;;;
2023/08/14 11:47:46;;;;;;;1297.72;900.10;;;27.10;99.30;;;;;;6224055;23;20024;-89
2023/08/14 12:01:43;;;;;;;;;;;;;;;;;;;;;
2023/08/14 12:05:07;;;;;;;1298.50;767.35;;;27.60;99.90;;;;;;6064005;23;20023;-89
2023/08/14 12:37:36;;;;;;;1296.82;759.53;;;29.10;98.40;;;;;;5923446;24;20169;-92
2023/08/14 12:57:24;;;;;;;1225.10;963.17;;;29.10;98.50;;;;;;5952800;24;20128;-91
2023/08/14 12:59:50;;;;;;;1045.60;934.15;;;28.80;98.10;;;;;;5928297;24;20081;-90
2023/08/14 13:03:15;;;;;;;987.92;747.33;;;28.60;98.90;;;;;;5930449;24;20017;-90
2023/08/14 13:06:25;;;;;;;993.92;737.17;;;28.80;98.60;;;;;;5930785;24;20031;-90
2023/08/14 13:12:22;;;;;;;;;;;;;;;;;;;;;
2023/08/14 13:15:06;;;;;;;1196.90;774.05;;;29.30;98.10;;;;;;6124563;23;20139;-89
2023/08/14 13:18:41;;;;;;;1262.45;931.35;;;29.50;95.90;;;;;;6195226;23;20024;-93
2023/08/14 13:29:46;;;;;;;1234.55;912.28;;;28.30;98.50;;;;;;6242240;22;20032;-92
2023/08/14 13:42:53;;;;;;;1024.88;719.42;;;27.80;98.90;;;;;;6265731;22;20013;-92
2023/08/14 14:13:34;;;;;;;832.75;672.70;;;27.80;99.90;;;;;;6240167;22;20028;-92
2023/08/14 14:17:37;;;;;;;788.60;666.25;;;27.70;98.50;;;;;;6225767;23;20035;-91
2023/08/14 14:28:33;;;;;;;693.90;624.17;;;27.60;99.60;;;;;;6131088;22;20055;-93
2023/08/14 14:32:04;;;;;;;926.42;834.83;;;28.00;99.50;;;;;;6156236;23;20177;-90
2023/08/14 15:31:36;;;;;;;1210.22;869.97;;;29.40;97.00;;;;;;6247311;22;20016;-88
2023/08/14 15:34:07;;;;;;;1202.53;739.22;;;29.30;96.50;;;;;;6194788;23;20024;-88
2023/08/14 15:36:54;;;;;;;1196.22;754.08;;;29.30;97.10;;;;;;6218817;23;20028;-91
2023/08/14 15:39:30;;;;;;;1174.78;752.72;;;29.00;96.60;;;;;;6246520;22;20094;-91
2023/08/14 15:42:16;;;;;;;1084.97;730.10;;;28.80;96.20;;;;;;6192484;23;20020;-88
2023/08/14 15:44:42;;;;;;;1155.05;733.78;;;28.40;97.80;;;;;;6245948;23;20020;-87
2023/08/14 15:48:01;;;;;;;1184.13;892.78;;;28.50;97.40;;;;;;6247100;23;20048;-89
2023/08/14 16:07:34;;;;;;;;;;;;;;;;;;;;;
2023/08/14 16:17:07;;;;;;;1144.60;714.10;;;27.50;99.00;;;;;;6247348;22;20085;-91
2023/08/14 16:20:04;;;;;;;1197.72;866.95;;;27.20;99.60;;;;;;6161971;23;20447;-91
2023/08/14 16:27:23;;;;;;;1076.32;697.85;;;26.90;99.90;;;;;;5954333;24;20031;-90
2023/08/14 16:33:45;;;;;;;1035.50;859.28;;;26.60;99.90;;;;;;6235041;22;20034;-92
2023/08/14 16:37:03;;;;;;;987.47;668.80;;;26.50;99.90;;;;;;6000987;23;20104;-90
2023/08/14 16:46:47;;;;;;;1189.63;822.60;;;26.20;99.90;;;;;;6261932;22;20027;-90
2023/08/14 16:49:41;;;;;;;1169.32;696.63;;;26.10;99.90;;;;;;6219688;23;20032;-92
2023/08/14 16:52:24;;;;;;;1069.55;677.22;;;26.10;99.90;;;;;;6245655;23;20398;-91
2023/08/14 17:02:17;;;;;;;;;;;;;;;;;;;;;
2023/08/14 17:05:07;;;;;;;742.17;608.85;;;25.70;99.90;;;;;;6119840;23;20081;-92
2023/08/14 17:07:53;;;;;;;;;;;25.70;99.90;;;;;;6095573;23;20030;-90
2023/08/14 17:14:19;;;;;;;;;;;;;;;;;;;;;